sensor_id;sensor_type;location;lat;lon;timestamp;P1;durP1;ratioP1;P2;durP2;ratioP2
63953;SDS011;50128;52.094;5.232;2023-03-23T00:01:10;9.21;;;5.3;;
63953;SDS011;50128;52.094;5.232;2023-03-23T00:04:25;9.21;;;5.11;;
63953;SDS011;50128;52.094;5.232;2023-03-23T00:06:01;9.31;;;5.9;;
63953;SDS011;50128;52.094;5.232;2023-03-23T00:07:38;8.31;;;4.91;;
63953;SDS011;50128;52.094;5.232;2023-03-23T00:10:51;7.8;;;5.4;;
63953;SDS011;50128;52.094;5.232;2023-03-23T00:12:28;8.1;;;5.0;;
63953;SDS011;50128;52.094;5.232;2023-03-23T00:14:07;9.21;;;5.2;;
63953;SDS011;50128;52.094;5.232;2023-03-23T00:15:45;8.1;;;4.91;;
63953;SDS011;50128;52.094;5.232;2023-03-23T00:18:59;10.8;;;5.3;;
63953;SDS011;50128;52.094;5.232;2023-03-23T00:20:37;8.6;;;5.11;;
63953;SDS011;50128;52.094;5.232;2023-03-23T00:22:15;8.6;;;5.5;;
63953;SDS011;50128;52.094;5.232;2023-03-23T00:25:29;8.2;;;5.3;;
63953;SDS011;50128;52.094;5.232;2023-03-23T00:27:05;7.7;;;4.8;;
63953;SDS011;50128;52.094;5.232;2023-03-23T00:28:41;6.9;;;4.5;;
63953;SDS011;50128;52.094;5.232;2023-03-23T00:31:53;8.31;;;4.8;;
63953;SDS011;50128;52.094;5.232;2023-03-23T00:33:30;8.31;;;4.61;;
63953;SDS011;50128;52.094;5.232;2023-03-23T00:35:09;8.4;;;4.7;;
63953;SDS011;50128;52.094;5.232;2023-03-23T00:36:45;9.0;;;5.11;;
63953;SDS011;50128;52.094;5.232;2023-03-23T00:40:00;8.6;;;4.7;;
63953;SDS011;50128;52.094;5.232;2023-03-23T00:41:36;7.5;;;4.61;;
63953;SDS011;50128;52.094;5.232;2023-03-23T00:43:12;7.7;;;4.2;;
63953;SDS011;50128;52.094;5.232;2023-03-23T00:46:25;7.2;;;4.0;;
63953;SDS011;50128;52.094;5.232;2023-03-23T00:48:01;6.3;;;4.3;;
63953;SDS011;50128;52.094;5.232;2023-03-23T00:49:37;7.2;;;4.1;;
63953;SDS011;50128;52.094;5.232;2023-03-23T00:51:14;7.4;;;4.2;;
63953;SDS011;50128;52.094;5.232;2023-03-23T00:54:27;6.2;;;4.0;;
63953;SDS011;50128;52.094;5.232;2023-03-23T00:56:04;6.6;;;3.9;;
63953;SDS011;50128;52.094;5.232;2023-03-23T00:57:41;8.4;;;4.5;;
63953;SDS011;50128;52.094;5.232;2023-03-23T01:00:54;7.5;;;3.9;;
63953;SDS011;50128;52.094;5.232;2023-03-23T01:02:30;6.8;;;3.7;;
63953;SDS011;50128;52.094;5.232;2023-03-23T01:04:06;7.0;;;3.8;;
63953;SDS011;50128;52.094;5.232;2023-03-23T01:07:21;6.2;;;3.6;;
63953;SDS011;50128;52.094;5.232;2023-03-23T01:08:58;7.7;;;3.7;;
63953;SDS011;50128;52.094;5.232;2023-03-23T01:10:35;6.4;;;3.8;;
63953;SDS011;50128;52.094;5.232;2023-03-23T01:12:11;6.3;;;3.7;;
63953;SDS011;50128;52.094;5.232;2023-03-23T01:15:23;7.3;;;3.4;;
63953;SDS011;50128;52.094;5.232;2023-03-23T01:16:59;5.3;;;3.5;;
63953;SDS011;50128;52.094;5.232;2023-03-23T01:18:35;6.0;;;3.3;;
63953;SDS011;50128;52.094;5.232;2023-03-23T01:21:50;6.8;;;3.6;;
63953;SDS011;50128;52.094;5.232;2023-03-23T01:23:26;6.6;;;3.5;;
63953;SDS011;50128;52.094;5.232;2023-03-23T01:25:03;6.4;;;3.5;;
63953;SDS011;50128;52.094;5.232;2023-03-23T01:28:16;6.6;;;3.8;;
63953;SDS011;50128;52.094;5.232;2023-03-23T01:29:52;6.3;;;3.8;;
63953;SDS011;50128;52.094;5.232;2023-03-23T01:31:28;6.3;;;3.5;;
63953;SDS011;50128;52.094;5.232;2023-03-23T01:33:04;8.1;;;3.5;;
63953;SDS011;50128;52.094;5.232;2023-03-23T01:36:18;8.1;;;3.5;;
63953;SDS011;50128;52.094;5.232;2023-03-23T01:37:56;6.1;;;3.5;;
63953;SDS011;50128;52.094;5.232;2023-03-23T01:39:33;6.0;;;3.9;;
63953;SDS011;50128;52.094;5.232;2023-03-23T01:42:50;6.3;;;3.6;;
63953;SDS011;50128;52.094;5.232;2023-03-23T01:45:17;7.5;;;4.0;;
63953;SDS011;50128;52.094;5.232;2023-03-23T01:47:01;6.7;;;3.6;;
63953;SDS011;50128;52.094;5.232;2023-03-23T01:48:38;7.8;;;3.8;;
63953;SDS011;50128;52.094;5.232;2023-03-23T01:50:15;6.5;;;3.7;;
63953;SDS011;50128;52.094;5.232;2023-03-23T01:53:36;5.11;;;3.4;;
63953;SDS011;50128;52.094;5.232;2023-03-23T01:55:16;5.3;;;3.3;;
63953;SDS011;50128;52.094;5.232;2023-03-23T01:56:55;6.3;;;3.7;;
63953;SDS011;50128;52.094;5.232;2023-03-23T01:58:34;6.5;;;3.7;;
63953;SDS011;50128;52.094;5.232;2023-03-23T02:01:50;6.4;;;4.0;;
63953;SDS011;50128;52.094;5.232;2023-03-23T02:03:28;6.9;;;4.0;;
63953;SDS011;50128;52.094;5.232;2023-03-23T02:05:08;6.7;;;4.1;;
63953;SDS011;50128;52.094;5.232;2023-03-23T02:06:49;6.1;;;3.9;;
63953;SDS011;50128;52.094;5.232;2023-03-23T02:10:04;6.4;;;3.8;;
63953;SDS011;50128;52.094;5.232;2023-03-23T02:11:41;4.91;;;3.7;;
63953;SDS011;50128;52.094;5.232;2023-03-23T02:13:17;9.71;;;4.61;;
63953;SDS011;50128;52.094;5.232;2023-03-23T02:14:54;6.1;;;3.9;;
63953;SDS011;50128;52.094;5.232;2023-03-23T02:18:21;7.2;;;4.0;;
63953;SDS011;50128;52.094;5.232;2023-03-23T02:20:16;6.5;;;4.3;;
63953;SDS011;50128;52.094;5.232;2023-03-23T02:22:14;5.9;;;4.0;;
63953;SDS011;50128;52.094;5.232;2023-03-23T02:25:32;5.6;;;4.1;;
63953;SDS011;50128;52.094;5.232;2023-03-23T02:27:36;5.4;;;4.1;;
63953;SDS011;50128;52.094;5.232;2023-03-23T02:30:11;5.2;;;3.9;;
63953;SDS011;50128;52.094;5.232;2023-03-23T02:32:04;6.2;;;4.5;;
63953;SDS011;50128;52.094;5.232;2023-03-23T02:33:50;6.7;;;4.61;;
63953;SDS011;50128;52.094;5.232;2023-03-23T02:37:13;6.7;;;4.3;;
63953;SDS011;50128;52.094;5.232;2023-03-23T02:38:57;7.3;;;3.9;;
63953;SDS011;50128;52.094;5.232;2023-03-23T02:40:41;6.7;;;4.1;;
63953;SDS011;50128;52.094;5.232;2023-03-23T02:42:21;5.5;;;3.8;;
63953;SDS011;50128;52.094;5.232;2023-03-23T02:45:41;5.2;;;3.8;;
63953;SDS011;50128;52.094;5.232;2023-03-23T02:47:21;7.1;;;4.2;;
63953;SDS011;50128;52.094;5.232;2023-03-23T02:49:00;6.5;;;3.7;;
63953;SDS011;50128;52.094;5.232;2023-03-23T02:50:41;6.3;;;3.5;;
63953;SDS011;50128;52.094;5.232;2023-03-23T02:54:02;6.4;;;3.5;;
63953;SDS011;50128;52.094;5.232;2023-03-23T02:55:42;5.2;;;3.8;;
63953;SDS011;50128;52.094;5.232;2023-03-23T02:57:20;5.4;;;3.3;;
63953;SDS011;50128;52.094;5.232;2023-03-23T02:58:58;5.9;;;3.2;;
63953;SDS011;50128;52.094;5.232;2023-03-23T03:02:12;5.7;;;3.3;;
63953;SDS011;50128;52.094;5.232;2023-03-23T03:03:53;4.8;;;3.3;;
63953;SDS011;50128;52.094;5.232;2023-03-23T03:05:35;5.0;;;3.1;;
63953;SDS011;50128;52.094;5.232;2023-03-23T03:09:25;6.7;;;3.1;;
63953;SDS011;50128;52.094;5.232;2023-03-23T03:12:51;6.5;;;2.8;;
63953;SDS011;50128;52.094;5.232;2023-03-23T03:14:33;5.9;;;2.5;;
63953;SDS011;50128;52.094;5.232;2023-03-23T03:16:19;6.8;;;2.8;;
63953;SDS011;50128;52.094;5.232;2023-03-23T03:18:04;7.2;;;2.7;;
63953;SDS011;50128;52.094;5.232;2023-03-23T03:19:48;5.5;;;2.9;;
63953;SDS011;50128;52.094;5.232;2023-03-23T03:23:10;7.5;;;2.8;;
63953;SDS011;50128;52.094;5.232;2023-03-23T03:24:48;7.3;;;2.8;;
63953;SDS011;50128;52.094;5.232;2023-03-23T03:26:27;7.2;;;2.5;;
63953;SDS011;50128;52.094;5.232;2023-03-23T03:29:42;5.5;;;2.5;;
63953;SDS011;50128;52.094;5.232;2023-03-23T03:31:22;6.6;;;2.5;;
63953;SDS011;50128;52.094;5.232;2023-03-23T03:33:04;6.1;;;2.5;;
63953;SDS011;50128;52.094;5.232;2023-03-23T03:34:40;6.7;;;2.31;;
63953;SDS011;50128;52.094;5.232;2023-03-23T03:37:57;6.0;;;2.21;;
63953;SDS011;50128;52.094;5.232;2023-03-23T03:39:41;5.11;;;2.4;;
63953;SDS011;50128;52.094;5.232;2023-03-23T03:41:17;3.9;;;1.7;;
63953;SDS011;50128;52.094;5.232;2023-03-23T03:42:55;5.5;;;2.4;;
63953;SDS011;50128;52.094;5.232;2023-03-23T03:46:08;5.9;;;2.6;;
63953;SDS011;50128;52.094;5.232;2023-03-23T03:47:44;5.3;;;2.31;;
63953;SDS011;50128;52.094;5.232;2023-03-23T03:49:21;6.5;;;2.4;;
63953;SDS011;50128;52.094;5.232;2023-03-23T03:52:33;5.6;;;2.21;;
63953;SDS011;50128;52.094;5.232;2023-03-23T03:54:10;5.3;;;2.31;;
63953;SDS011;50128;52.094;5.232;2023-03-23T03:55:46;5.4;;;2.31;;
63953;SDS011;50128;52.094;5.232;2023-03-23T03:58:58;4.3;;;2.1;;
63953;SDS011;50128;52.094;5.232;2023-03-23T04:00:35;6.1;;;2.31;;
63953;SDS011;50128;52.094;5.232;2023-03-23T04:02:11;4.2;;;2.1;;
63953;SDS011;50128;52.094;5.232;2023-03-23T04:03:47;6.4;;;2.9;;
63953;SDS011;50128;52.094;5.232;2023-03-23T04:06:59;7.0;;;2.6;;
63953;SDS011;50128;52.094;5.232;2023-03-23T04:08:36;5.6;;;2.0;;
63953;SDS011;50128;52.094;5.232;2023-03-23T04:10:12;5.6;;;2.1;;
63953;SDS011;50128;52.094;5.232;2023-03-23T04:13:25;5.6;;;2.1;;
63953;SDS011;50128;52.094;5.232;2023-03-23T04:15:01;6.0;;;2.31;;
63953;SDS011;50128;52.094;5.232;2023-03-23T04:16:38;6.2;;;2.31;;
63953;SDS011;50128;52.094;5.232;2023-03-23T04:19:52;8.4;;;2.5;;
63953;SDS011;50128;52.094;5.232;2023-03-23T04:21:29;5.8;;;2.1;;
63953;SDS011;50128;52.094;5.232;2023-03-23T04:23:05;7.3;;;2.21;;
63953;SDS011;50128;52.094;5.232;2023-03-23T04:24:41;8.0;;;2.31;;
63953;SDS011;50128;52.094;5.232;2023-03-23T04:27:54;6.8;;;2.0;;
63953;SDS011;50128;52.094;5.232;2023-03-23T04:29:30;7.3;;;2.21;;
63953;SDS011;50128;52.094;5.232;2023-03-23T04:31:06;6.3;;;2.0;;
63953;SDS011;50128;52.094;5.232;2023-03-23T04:34:18;6.3;;;2.0;;
63953;SDS011;50128;52.094;5.232;2023-03-23T04:35:55;6.4;;;2.4;;
63953;SDS011;50128;52.094;5.232;2023-03-23T04:37:36;7.1;;;2.6;;
63953;SDS011;50128;52.094;5.232;2023-03-23T04:40:50;8.1;;;2.4;;
63953;SDS011;50128;52.094;5.232;2023-03-23T04:42:28;6.6;;;2.1;;
63953;SDS011;50128;52.094;5.232;2023-03-23T04:44:06;7.7;;;2.21;;
63953;SDS011;50128;52.094;5.232;2023-03-23T04:45:43;6.3;;;2.0;;
63953;SDS011;50128;52.094;5.232;2023-03-23T04:48:55;7.4;;;2.21;;
63953;SDS011;50128;52.094;5.232;2023-03-23T04:50:32;8.81;;;2.21;;
63953;SDS011;50128;52.094;5.232;2023-03-23T04:52:09;9.1;;;2.7;;
63953;SDS011;50128;52.094;5.232;2023-03-23T04:55:21;7.6;;;2.6;;
63953;SDS011;50128;52.094;5.232;2023-03-23T04:56:57;9.0;;;2.4;;
63953;SDS011;50128;52.094;5.232;2023-03-23T04:58:33;8.5;;;2.7;;
63953;SDS011;50128;52.094;5.232;2023-03-23T05:00:10;7.6;;;2.31;;
63953;SDS011;50128;52.094;5.232;2023-03-23T05:03:23;8.9;;;2.8;;
63953;SDS011;50128;52.094;5.232;2023-03-23T05:04:59;8.2;;;2.5;;
63953;SDS011;50128;52.094;5.232;2023-03-23T05:06:35;11.0;;;3.3;;
63953;SDS011;50128;52.094;5.232;2023-03-23T05:09:47;13.6;;;2.9;;
63953;SDS011;50128;52.094;5.232;2023-03-23T05:11:24;8.81;;;2.7;;
63953;SDS011;50128;52.094;5.232;2023-03-23T05:13:00;9.4;;;2.8;;
63953;SDS011;50128;52.094;5.232;2023-03-23T05:16:16;11.9;;;2.6;;
63953;SDS011;50128;52.094;5.232;2023-03-23T05:17:52;10.21;;;2.8;;
63953;SDS011;50128;52.094;5.232;2023-03-23T05:19:28;8.9;;;2.7;;
63953;SDS011;50128;52.094;5.232;2023-03-23T05:22:40;11.3;;;3.1;;
63953;SDS011;50128;52.094;5.232;2023-03-23T05:24:17;12.9;;;3.3;;
63953;SDS011;50128;52.094;5.232;2023-03-23T05:25:53;10.8;;;2.8;;
63953;SDS011;50128;52.094;5.232;2023-03-23T05:27:31;10.3;;;2.9;;
63953;SDS011;50128;52.094;5.232;2023-03-23T05:30:43;12.3;;;2.8;;
63953;SDS011;50128;52.094;5.232;2023-03-23T05:32:19;10.9;;;3.2;;
63953;SDS011;50128;52.094;5.232;2023-03-23T05:33:55;9.6;;;2.7;;
63953;SDS011;50128;52.094;5.232;2023-03-23T05:37:08;9.81;;;2.8;;
63953;SDS011;50128;52.094;5.232;2023-03-23T05:38:45;8.9;;;2.5;;
63953;SDS011;50128;52.094;5.232;2023-03-23T05:40:21;10.7;;;3.2;;
63953;SDS011;50128;52.094;5.232;2023-03-23T05:43:33;8.6;;;2.9;;
63953;SDS011;50128;52.094;5.232;2023-03-23T05:45:09;11.0;;;2.9;;
63953;SDS011;50128;52.094;5.232;2023-03-23T05:46:46;8.4;;;3.1;;
63953;SDS011;50128;52.094;5.232;2023-03-23T05:48:23;10.5;;;3.3;;
63953;SDS011;50128;52.094;5.232;2023-03-23T05:51:37;13.2;;;3.5;;
63953;SDS011;50128;52.094;5.232;2023-03-23T05:53:13;13.6;;;3.2;;
63953;SDS011;50128;52.094;5.232;2023-03-23T05:54:49;8.81;;;2.8;;
63953;SDS011;50128;52.094;5.232;2023-03-23T05:58:01;12.1;;;3.3;;
63953;SDS011;50128;52.094;5.232;2023-03-23T05:59:37;11.0;;;3.0;;
63953;SDS011;50128;52.094;5.232;2023-03-23T06:01:13;11.5;;;3.2;;
63953;SDS011;50128;52.094;5.232;2023-03-23T06:04:30;10.21;;;3.2;;
63953;SDS011;50128;52.094;5.232;2023-03-23T06:06:09;14.3;;;4.1;;
63953;SDS011;50128;52.094;5.232;2023-03-23T06:07:46;11.8;;;3.3;;
63953;SDS011;50128;52.094;5.232;2023-03-23T06:09:22;13.8;;;4.0;;
63953;SDS011;50128;52.094;5.232;2023-03-23T06:12:34;12.7;;;4.3;;
63953;SDS011;50128;52.094;5.232;2023-03-23T06:14:10;12.0;;;3.5;;
63953;SDS011;50128;52.094;5.232;2023-03-23T06:15:47;9.5;;;3.1;;
63953;SDS011;50128;52.094;5.232;2023-03-23T06:19:00;10.6;;;4.1;;
63953;SDS011;50128;52.094;5.232;2023-03-23T06:20:36;11.8;;;4.1;;
63953;SDS011;50128;52.094;5.232;2023-03-23T06:22:12;12.3;;;3.9;;
63953;SDS011;50128;52.094;5.232;2023-03-23T06:25:25;12.3;;;4.1;;
63953;SDS011;50128;52.094;5.232;2023-03-23T06:27:01;10.7;;;3.9;;
63953;SDS011;50128;52.094;5.232;2023-03-23T06:28:37;12.1;;;4.3;;
63953;SDS011;50128;52.094;5.232;2023-03-23T06:30:14;14.4;;;4.5;;
63953;SDS011;50128;52.094;5.232;2023-03-23T06:33:32;9.71;;;3.7;;
63953;SDS011;50128;52.094;5.232;2023-03-23T06:35:09;13.0;;;4.5;;
63953;SDS011;50128;52.094;5.232;2023-03-23T06:36:46;13.5;;;4.91;;
63953;SDS011;50128;52.094;5.232;2023-03-23T06:39:59;15.1;;;3.8;;
63953;SDS011;50128;52.094;5.232;2023-03-23T06:41:35;12.4;;;3.5;;
63953;SDS011;50128;52.094;5.232;2023-03-23T06:43:12;13.3;;;4.3;;
63953;SDS011;50128;52.094;5.232;2023-03-23T06:44:49;13.4;;;4.2;;
63953;SDS011;50128;52.094;5.232;2023-03-23T06:48:01;11.6;;;3.9;;
63953;SDS011;50128;52.094;5.232;2023-03-23T06:49:37;12.1;;;3.7;;
63953;SDS011;50128;52.094;5.232;2023-03-23T06:51:13;13.7;;;3.8;;
63953;SDS011;50128;52.094;5.232;2023-03-23T06:54:27;15.3;;;4.3;;
63953;SDS011;50128;52.094;5.232;2023-03-23T06:56:03;10.5;;;3.8;;
63953;SDS011;50128;52.094;5.232;2023-03-23T06:57:39;9.9;;;3.5;;
63953;SDS011;50128;52.094;5.232;2023-03-23T07:00:53;11.3;;;3.7;;
63953;SDS011;50128;52.094;5.232;2023-03-23T07:02:29;11.9;;;3.4;;
63953;SDS011;50128;52.094;5.232;2023-03-23T07:04:05;13.5;;;4.5;;
63953;SDS011;50128;52.094;5.232;2023-03-23T07:05:41;15.7;;;4.41;;
63953;SDS011;50128;52.094;5.232;2023-03-23T07:08:58;14.5;;;4.7;;
63953;SDS011;50128;52.094;5.232;2023-03-23T07:10:34;11.3;;;3.7;;
63953;SDS011;50128;52.094;5.232;2023-03-23T07:12:10;11.3;;;4.41;;
63953;SDS011;50128;52.094;5.232;2023-03-23T07:15:22;12.0;;;3.9;;
63953;SDS011;50128;52.094;5.232;2023-03-23T07:16:58;12.8;;;4.1;;
63953;SDS011;50128;52.094;5.232;2023-03-23T07:18:34;10.9;;;3.6;;
63953;SDS011;50128;52.094;5.232;2023-03-23T07:21:48;9.4;;;3.6;;
63953;SDS011;50128;52.094;5.232;2023-03-23T07:23:24;15.3;;;4.2;;
63953;SDS011;50128;52.094;5.232;2023-03-23T07:25:00;10.21;;;3.6;;
63953;SDS011;50128;52.094;5.232;2023-03-23T07:26:36;11.9;;;3.6;;
63953;SDS011;50128;52.094;5.232;2023-03-23T07:29:48;15.6;;;4.41;;
63953;SDS011;50128;52.094;5.232;2023-03-23T07:31:25;11.7;;;3.8;;
63953;SDS011;50128;52.094;5.232;2023-03-23T07:33:03;11.3;;;4.1;;
63953;SDS011;50128;52.094;5.232;2023-03-23T07:36:17;14.0;;;4.0;;
63953;SDS011;50128;52.094;5.232;2023-03-23T07:37:53;11.7;;;3.6;;
63953;SDS011;50128;52.094;5.232;2023-03-23T07:39:29;11.2;;;3.8;;
63953;SDS011;50128;52.094;5.232;2023-03-23T07:42:43;10.1;;;3.2;;
63953;SDS011;50128;52.094;5.232;2023-03-23T07:44:21;11.0;;;3.1;;
63953;SDS011;50128;52.094;5.232;2023-03-23T07:45:58;12.6;;;3.5;;
63953;SDS011;50128;52.094;5.232;2023-03-23T07:47:34;11.2;;;3.4;;
63953;SDS011;50128;52.094;5.232;2023-03-23T07:50:46;11.8;;;3.6;;
63953;SDS011;50128;52.094;5.232;2023-03-23T07:52:22;9.71;;;3.2;;
63953;SDS011;50128;52.094;5.232;2023-03-23T07:53:59;13.1;;;3.8;;
63953;SDS011;50128;52.094;5.232;2023-03-23T07:57:11;12.0;;;3.9;;
63953;SDS011;50128;52.094;5.232;2023-03-23T07:58:47;10.21;;;3.5;;
63953;SDS011;50128;52.094;5.232;2023-03-23T08:00:24;12.5;;;3.9;;
63953;SDS011;50128;52.094;5.232;2023-03-23T08:03:38;9.9;;;3.5;;
63953;SDS011;50128;52.094;5.232;2023-03-23T08:05:14;8.0;;;3.1;;
63953;SDS011;50128;52.094;5.232;2023-03-23T08:06:51;10.21;;;3.3;;
63953;SDS011;50128;52.094;5.232;2023-03-23T08:08:27;11.6;;;3.8;;
63953;SDS011;50128;52.094;5.232;2023-03-23T08:11:40;12.2;;;4.0;;
63953;SDS011;50128;52.094;5.232;2023-03-23T08:13:17;10.0;;;3.5;;
63953;SDS011;50128;52.094;5.232;2023-03-23T08:14:53;12.0;;;3.9;;
63953;SDS011;50128;52.094;5.232;2023-03-23T08:18:06;12.9;;;3.8;;
63953;SDS011;50128;52.094;5.232;2023-03-23T08:19:43;11.7;;;4.2;;
63953;SDS011;50128;52.094;5.232;2023-03-23T08:21:19;10.0;;;3.3;;
63953;SDS011;50128;52.094;5.232;2023-03-23T08:24:32;9.0;;;3.3;;
63953;SDS011;50128;52.094;5.232;2023-03-23T08:26:09;8.5;;;3.1;;
63953;SDS011;50128;52.094;5.232;2023-03-23T08:27:46;9.1;;;3.4;;
63953;SDS011;50128;52.094;5.232;2023-03-23T08:29:23;10.0;;;3.5;;
63953;SDS011;50128;52.094;5.232;2023-03-23T08:32:36;8.9;;;3.4;;
63953;SDS011;50128;52.094;5.232;2023-03-23T08:34:12;12.2;;;4.0;;
63953;SDS011;50128;52.094;5.232;2023-03-23T08:35:54;10.1;;;3.5;;
63953;SDS011;50128;52.094;5.232;2023-03-23T08:39:08;9.81;;;3.5;;
63953;SDS011;50128;52.094;5.232;2023-03-23T08:40:44;10.4;;;3.2;;
63953;SDS011;50128;52.094;5.232;2023-03-23T08:42:20;8.9;;;3.2;;
63953;SDS011;50128;52.094;5.232;2023-03-23T08:45:32;9.21;;;3.3;;
63953;SDS011;50128;52.094;5.232;2023-03-23T08:47:08;8.71;;;2.9;;
63953;SDS011;50128;52.094;5.232;2023-03-23T08:48:45;9.4;;;3.2;;
63953;SDS011;50128;52.094;5.232;2023-03-23T08:50:22;9.4;;;3.5;;
63953;SDS011;50128;52.094;5.232;2023-03-23T08:53:38;10.21;;;3.5;;
63953;SDS011;50128;52.094;5.232;2023-03-23T08:55:15;9.0;;;3.2;;
63953;SDS011;50128;52.094;5.232;2023-03-23T08:56:52;10.8;;;3.5;;
63953;SDS011;50128;52.094;5.232;2023-03-23T09:00:05;10.21;;;3.3;;
63953;SDS011;50128;52.094;5.232;2023-03-23T09:01:44;9.6;;;3.1;;
63953;SDS011;50128;52.094;5.232;2023-03-23T09:03:21;11.7;;;4.41;;
63953;SDS011;50128;52.094;5.232;2023-03-23T09:04:57;9.5;;;3.1;;
63953;SDS011;50128;52.094;5.232;2023-03-23T09:08:10;8.6;;;3.5;;
63953;SDS011;50128;52.094;5.232;2023-03-23T09:09:47;10.1;;;3.8;;
63953;SDS011;50128;52.094;5.232;2023-03-23T09:11:23;8.5;;;3.4;;
63953;SDS011;50128;52.094;5.232;2023-03-23T09:14:35;11.4;;;3.5;;
63953;SDS011;50128;52.094;5.232;2023-03-23T09:16:12;11.4;;;3.4;;
63953;SDS011;50128;52.094;5.232;2023-03-23T09:17:50;11.5;;;3.6;;
63953;SDS011;50128;52.094;5.232;2023-03-23T09:21:04;10.1;;;3.3;;
63953;SDS011;50128;52.094;5.232;2023-03-23T09:22:42;14.6;;;3.5;;
63953;SDS011;50128;52.094;5.232;2023-03-23T09:24:21;12.2;;;3.2;;
63953;SDS011;50128;52.094;5.232;2023-03-23T09:25:59;10.1;;;3.6;;
63953;SDS011;50128;52.094;5.232;2023-03-23T09:29:14;12.7;;;3.5;;
63953;SDS011;50128;52.094;5.232;2023-03-23T09:30:50;11.5;;;3.9;;
63953;SDS011;50128;52.094;5.232;2023-03-23T09:32:26;12.4;;;3.9;;
63953;SDS011;50128;52.094;5.232;2023-03-23T09:35:38;12.3;;;3.8;;
63953;SDS011;50128;52.094;5.232;2023-03-23T09:37:15;11.6;;;3.4;;
63953;SDS011;50128;52.094;5.232;2023-03-23T09:38:51;14.7;;;3.8;;
63953;SDS011;50128;52.094;5.232;2023-03-23T09:42:23;11.0;;;3.4;;
63953;SDS011;50128;52.094;5.232;2023-03-23T09:44:14;11.6;;;3.5;;
63953;SDS011;50128;52.094;5.232;2023-03-23T09:46:01;12.9;;;3.3;;
63953;SDS011;50128;52.094;5.232;2023-03-23T09:48:04;12.1;;;3.5;;
63953;SDS011;50128;52.094;5.232;2023-03-23T09:50:09;12.7;;;3.9;;
63953;SDS011;50128;52.094;5.232;2023-03-23T09:51:49;15.1;;;3.7;;
63953;SDS011;50128;52.094;5.232;2023-03-23T09:53:30;12.9;;;3.6;;
63953;SDS011;50128;52.094;5.232;2023-03-23T09:55:14;13.9;;;3.4;;
63953;SDS011;50128;52.094;5.232;2023-03-23T09:58:33;9.6;;;3.1;;
63953;SDS011;50128;52.094;5.232;2023-03-23T10:00:18;13.7;;;3.6;;
63953;SDS011;50128;52.094;5.232;2023-03-23T10:02:04;14.2;;;3.6;;
63953;SDS011;50128;52.094;5.232;2023-03-23T10:05:52;11.0;;;3.1;;
63953;SDS011;50128;52.094;5.232;2023-03-23T10:09:06;11.6;;;3.3;;
63953;SDS011;50128;52.094;5.232;2023-03-23T10:10:53;10.9;;;3.2;;
63953;SDS011;50128;52.094;5.232;2023-03-23T10:12:38;13.3;;;3.3;;
63953;SDS011;50128;52.094;5.232;2023-03-23T10:14:27;11.1;;;3.3;;
63953;SDS011;50128;52.094;5.232;2023-03-23T10:16:17;12.0;;;3.5;;
63953;SDS011;50128;52.094;5.232;2023-03-23T10:19:58;14.5;;;3.8;;
63953;SDS011;50128;52.094;5.232;2023-03-23T10:21:51;12.7;;;3.2;;
63953;SDS011;50128;52.094;5.232;2023-03-23T10:23:40;11.0;;;3.2;;
63953;SDS011;50128;52.094;5.232;2023-03-23T10:25:28;11.5;;;3.3;;
63953;SDS011;50128;52.094;5.232;2023-03-23T10:27:11;10.1;;;3.2;;
63953;SDS011;50128;52.094;5.232;2023-03-23T10:28:56;10.9;;;3.4;;
63953;SDS011;50128;52.094;5.232;2023-03-23T10:32:17;13.0;;;3.5;;
63953;SDS011;50128;52.094;5.232;2023-03-23T10:33:59;10.6;;;3.0;;
63953;SDS011;50128;52.094;5.232;2023-03-23T10:35:42;8.31;;;2.9;;
63953;SDS011;50128;52.094;5.232;2023-03-23T10:39:16;12.3;;;3.4;;
63953;SDS011;50128;52.094;5.232;2023-03-23T10:42:41;12.0;;;3.5;;
63953;SDS011;50128;52.094;5.232;2023-03-23T10:44:18;13.6;;;3.3;;
63953;SDS011;50128;52.094;5.232;2023-03-23T10:45:59;13.1;;;3.3;;
63953;SDS011;50128;52.094;5.232;2023-03-23T10:47:49;11.1;;;3.2;;
63953;SDS011;50128;52.094;5.232;2023-03-23T10:51:14;11.7;;;3.1;;
63953;SDS011;50128;52.094;5.232;2023-03-23T10:52:54;12.1;;;3.8;;
63953;SDS011;50128;52.094;5.232;2023-03-23T10:54:35;12.2;;;3.4;;
63953;SDS011;50128;52.094;5.232;2023-03-23T10:56:20;12.3;;;3.6;;
63953;SDS011;50128;52.094;5.232;2023-03-23T10:58:02;12.3;;;3.3;;
63953;SDS011;50128;52.094;5.232;2023-03-23T11:01:18;13.7;;;3.5;;
63953;SDS011;50128;52.094;5.232;2023-03-23T11:02:57;11.6;;;3.3;;
63953;SDS011;50128;52.094;5.232;2023-03-23T11:04:37;12.6;;;3.2;;
63953;SDS011;50128;52.094;5.232;2023-03-23T11:07:57;12.2;;;3.3;;
63953;SDS011;50128;52.094;5.232;2023-03-23T11:09:36;12.4;;;3.4;;
63953;SDS011;50128;52.094;5.232;2023-03-23T11:11:15;10.4;;;3.0;;
63953;SDS011;50128;52.094;5.232;2023-03-23T11:12:56;12.8;;;3.7;;
63953;SDS011;50128;52.094;5.232;2023-03-23T11:16:22;9.9;;;3.1;;
63953;SDS011;50128;52.094;5.232;2023-03-23T11:18:01;12.9;;;3.7;;
63953;SDS011;50128;52.094;5.232;2023-03-23T11:19:39;12.2;;;3.5;;
63953;SDS011;50128;52.094;5.232;2023-03-23T11:21:15;12.3;;;3.0;;
63953;SDS011;50128;52.094;5.232;2023-03-23T11:24:29;10.6;;;3.1;;
63953;SDS011;50128;52.094;5.232;2023-03-23T11:26:10;12.2;;;3.4;;
63953;SDS011;50128;52.094;5.232;2023-03-23T11:27:50;10.8;;;3.4;;
63953;SDS011;50128;52.094;5.232;2023-03-23T11:29:26;10.5;;;3.1;;
63953;SDS011;50128;52.094;5.232;2023-03-23T11:32:43;8.81;;;2.9;;
63953;SDS011;50128;52.094;5.232;2023-03-23T11:34:21;13.1;;;3.6;;
63953;SDS011;50128;52.094;5.232;2023-03-23T11:35:59;11.1;;;3.2;;
63953;SDS011;50128;52.094;5.232;2023-03-23T11:39:21;12.2;;;3.1;;
63953;SDS011;50128;52.094;5.232;2023-03-23T11:40:59;10.4;;;2.9;;
63953;SDS011;50128;52.094;5.232;2023-03-23T11:42:37;11.1;;;3.3;;
63953;SDS011;50128;52.094;5.232;2023-03-23T11:44:21;11.6;;;3.3;;
63953;SDS011;50128;52.094;5.232;2023-03-23T11:47:49;9.9;;;2.9;;
63953;SDS011;50128;52.094;5.232;2023-03-23T11:49:38;12.3;;;3.2;;
63953;SDS011;50128;52.094;5.232;2023-03-23T11:51:23;11.3;;;3.2;;
63953;SDS011;50128;52.094;5.232;2023-03-23T11:53:11;11.9;;;3.6;;
63953;SDS011;50128;52.094;5.232;2023-03-23T11:54:56;11.8;;;2.8;;
63953;SDS011;50128;52.094;5.232;2023-03-23T11:56:41;11.1;;;3.5;;
63953;SDS011;50128;52.094;5.232;2023-03-23T11:59:56;12.9;;;3.4;;
63953;SDS011;50128;52.094;5.232;2023-03-23T12:01:38;10.5;;;3.1;;
63953;SDS011;50128;52.094;5.232;2023-03-23T12:03:34;12.3;;;3.9;;
63953;SDS011;50128;52.094;5.232;2023-03-23T12:05:34;12.8;;;3.6;;
63953;SDS011;50128;52.094;5.232;2023-03-23T12:07:24;14.5;;;4.0;;
63953;SDS011;50128;52.094;5.232;2023-03-23T12:09:21;14.1;;;3.3;;
63953;SDS011;50128;52.094;5.232;2023-03-23T12:11:15;11.0;;;3.5;;
63953;SDS011;50128;52.094;5.232;2023-03-23T12:14:53;15.1;;;4.0;;
63953;SDS011;50128;52.094;5.232;2023-03-23T12:16:41;10.3;;;3.0;;
63953;SDS011;50128;52.094;5.232;2023-03-23T12:18:37;12.2;;;3.1;;
63953;SDS011;50128;52.094;5.232;2023-03-23T12:22:18;14.2;;;3.9;;
63953;SDS011;50128;52.094;5.232;2023-03-23T12:24:21;9.9;;;2.8;;
63953;SDS011;50128;52.094;5.232;2023-03-23T12:27:58;10.21;;;3.1;;
63953;SDS011;50128;52.094;5.232;2023-03-23T12:31:40;10.9;;;3.3;;
63953;SDS011;50128;52.094;5.232;2023-03-23T12:33:27;11.4;;;2.8;;
63953;SDS011;50128;52.094;5.232;2023-03-23T12:35:22;11.5;;;3.0;;
63953;SDS011;50128;52.094;5.232;2023-03-23T12:37:15;12.3;;;3.2;;
63953;SDS011;50128;52.094;5.232;2023-03-23T12:39:25;10.6;;;2.8;;
63953;SDS011;50128;52.094;5.232;2023-03-23T12:41:20;10.1;;;2.7;;
63953;SDS011;50128;52.094;5.232;2023-03-23T12:43:04;12.0;;;3.1;;
63953;SDS011;50128;52.094;5.232;2023-03-23T12:44:56;8.9;;;2.9;;
63953;SDS011;50128;52.094;5.232;2023-03-23T12:46:53;10.21;;;2.9;;
63953;SDS011;50128;52.094;5.232;2023-03-23T12:49:29;7.9;;;2.1;;
63953;SDS011;50128;52.094;5.232;2023-03-23T12:51:13;11.0;;;2.5;;
63953;SDS011;50128;52.094;5.232;2023-03-23T12:54:41;9.81;;;2.9;;
63953;SDS011;50128;52.094;5.232;2023-03-23T12:56:23;12.4;;;3.0;;
63953;SDS011;50128;52.094;5.232;2023-03-23T12:58:05;7.9;;;2.6;;
63953;SDS011;50128;52.094;5.232;2023-03-23T12:59:47;8.81;;;2.7;;
63953;SDS011;50128;52.094;5.232;2023-03-23T13:01:40;9.4;;;2.8;;
63953;SDS011;50128;52.094;5.232;2023-03-23T13:05:13;7.1;;;2.31;;